Time;durP1;ratioP1;P1;durP2;ratioP2;P2;SDS_P1;SDS_P2;PMS_P1;PMS_P2;Temp;Humidity;BMP_temperature;BMP_pressure;BME280_temperature;BME280_humidity;BME280_pressure;Samples;Min_cycle;Max_cycle;Signal;HPM_P1;HPM_P2
2021/04/14 00:00:44;;;;;;;6.87;2.00;;;;;;;2.52;100.00;102292.16;4912388;29;20864;-69
2021/04/14 00:03:18;;;;;;;5.57;1.53;;;;;;;2.55;100.00;102296.34;4911886;29;20279;-68
2021/04/14 00:05:46;;;;;;;7.70;1.80;;;;;;;2.63;100.00;102296.25;4913512;29;20929;-69
2021/04/14 00:08:11;;;;;;;5.03;1.40;;;;;;;2.50;100.00;102298.72;4897028;29;20200;-69
2021/04/14 00:10:40;;;;;;;8.97;1.90;;;;;;;2.52;100.00;102294.00;4912231;29;20295;-68
2021/04/14 00:13:08;;;;;;;5.50;2.00;;;;;;;2.64;100.00;102293.41;4911765;29;20200;-69
2021/04/14 00:15:38;;;;;;;7.67;1.83;;;;;;;2.68;100.00;102298.22;4912198;29;20232;-69
2021/04/14 00:18:05;;;;;;;6.10;1.80;;;;;;;2.60;100.00;102299.28;4913435;29;20283;-69
2021/04/14 00:20:33;;;;;;;6.23;1.77;;;;;;;2.63;100.00;102298.94;4896923;29;20306;-69
2021/04/14 00:23:02;;;;;;;9.13;2.00;;;;;;;2.62;100.00;102292.75;4896814;29;20192;-70
2021/04/14 00:25:32;;;;;;;6.30;1.80;;;;;;;2.53;100.00;102293.84;4896942;29;20645;-69
2021/04/14 00:27:58;;;;;;;7.73;2.07;;;;;;;2.62;100.00;102295.44;4897667;29;20189;-70
2021/04/14 00:30:24;;;;;;;4.53;1.70;;;;;;;2.46;100.00;102297.41;4912116;29;20188;-69
2021/04/14 00:32:50;;;;;;;5.63;1.70;;;;;;;2.48;100.00;102300.75;4896307;29;20670;-71
2021/04/14 00:35:16;;;;;;;5.93;1.80;;;;;;;2.41;100.00;102299.78;4912056;29;20236;-69
2021/04/14 00:37:44;;;;;;;4.87;1.50;;;;;;;2.27;100.00;102289.00;4912890;29;20619;-69
2021/04/14 00:40:20;;;;;;;4.13;1.83;;;;;;;2.35;100.00;102290.63;4911970;29;20196;-69
2021/04/14 00:42:46;;;;;;;5.27;1.67;;;;;;;2.42;100.00;102296.13;4880427;29;20200;-69
2021/04/14 00:45:12;;;;;;;5.37;1.57;;;;;;;2.42;100.00;102296.94;4896068;29;20187;-70
2021/04/14 00:47:38;;;;;;;2.87;1.70;;;;;;;2.36;100.00;102297.66;4912041;29;20522;-69
2021/04/14 00:50:12;;;;;;;9.40;1.80;;;;;;;2.42;100.00;102285.38;4896310;29;20295;-68
2021/04/14 00:52:37;;;;;;;5.90;1.80;;;;;;;2.63;100.00;102290.91;4880068;29;20216;-69
2021/04/14 00:55:07;;;;;;;4.00;1.70;;;;;;;2.53;100.00;102288.47;4865191;29;20692;-69
2021/04/14 00:57:35;;;;;;;3.87;1.43;;;;;;;2.46;100.00;102282.16;4896648;29;20220;-68
2021/04/14 01:00:01;;;;;;;4.77;1.50;;;;;;;2.36;100.00;102286.09;4897137;29;20231;-68
2021/04/14 01:02:28;;;;;;;8.90;2.27;;;;;;;2.22;100.00;102294.94;4898387;29;20228;-68
2021/04/14 01:04:53;;;;;;;4.60;1.90;;;;;;;2.07;100.00;102288.66;4900445;29;20196;-71
2021/04/14 01:07:21;;;;;;;7.13;1.80;;;;;;;2.19;100.00;102281.88;4915511;29;20224;-68
2021/04/14 01:09:49;;;;;;;6.33;1.60;;;;;;;2.20;100.00;102280.00;4900253;29;20299;-67
2021/04/14 01:12:15;;;;;;;6.03;2.00;;;;;;;2.15;100.00;102288.59;4914608;29;20236;-68
2021/04/14 01:14:40;;;;;;;6.20;1.80;;;;;;;2.18;100.00;102288.25;4913696;29;20721;-69
2021/04/14 01:17:06;;;;;;;4.73;1.77;;;;;;;2.19;100.00;102284.56;4915306;29;20244;-69
2021/04/14 01:19:32;;;;;;;3.97;2.00;;;;;;;2.13;100.00;102287.94;4915465;29;20713;-68
2021/04/14 01:21:59;;;;;;;4.20;1.73;;;;;;;1.99;100.00;102283.34;4898735;29;20323;-68
2021/04/14 01:24:25;;;;;;;7.03;1.60;;;;;;;1.99;100.00;102286.03;4915581;29;20185;-69
2021/04/14 01:26:53;;;;;;;5.47;1.87;;;;;;;2.01;100.00;102286.69;4914300;29;20259;-69
2021/04/14 01:29:18;;;;;;;5.13;2.10;;;;;;;1.81;100.00;102289.16;4899051;29;20209;-69
2021/04/14 01:31:44;;;;;;;9.17;2.00;;;;;;;1.81;100.00;102289.16;4882075;29;20789;-69
2021/04/14 01:34:15;;;;;;;5.57;1.73;;;;;;;1.69;100.00;102279.88;4868862;29;20318;-68
2021/04/14 01:36:41;;;;;;;6.27;2.13;;;;;;;1.73;100.00;102287.38;4883798;29;20398;-68
2021/04/14 01:39:07;;;;;;;6.13;1.80;;;;;;;1.56;100.00;102283.09;4852968;29;20695;-69
2021/04/14 01:41:33;;;;;;;6.83;1.97;;;;;;;1.58;100.00;102277.59;4852592;29;20228;-68
2021/04/14 01:43:59;;;;;;;2.20;1.50;;;;;;;1.70;100.00;102276.16;4882894;29;20211;-68
2021/04/14 01:46:25;;;;;;;4.17;1.53;;;;;;;1.70;100.00;102282.34;4883338;29;20283;-68
2021/04/14 01:48:53;;;;;;;5.57;1.63;;;;;;;1.69;100.00;102279.88;4883727;29;20299;-67
2021/04/14 01:51:18;;;;;;;4.00;1.77;;;;;;;1.50;100.00;102285.63;4883250;29;20228;-70
2021/04/14 01:53:46;;;;;;;5.57;1.70;;;;;;;1.59;100.00;102277.41;4898187;29;20188;-70
2021/04/14 01:56:12;;;;;;;5.80;2.37;;;;;;;1.60;100.00;102276.38;4883924;29;20319;-69
2021/04/14 01:58:38;;;;;;;2.53;1.27;;;;;;;1.70;100.00;102281.53;4899148;29;20223;-70
2021/04/14 02:01:08;;;;;;;8.30;1.77;;;;;;;1.52;100.00;102285.47;4867647;29;20235;-70
2021/04/14 02:03:36;;;;;;;5.30;1.80;;;;;;;1.36;100.00;102278.34;4883824;29;20200;-68
2021/04/14 02:06:02;;;;;;;4.70;1.30;;;;;;;1.26;100.00;102277.72;4883124;29;20604;-68
2021/04/14 02:08:27;;;;;;;5.50;1.67;;;;;;;1.08;100.00;102283.44;4883476;29;20208;-68
2021/04/14 02:10:53;;;;;;;6.43;1.70;;;;;;;0.93;100.00;102274.47;4898038;29;20663;-69
2021/04/14 02:13:29;;;;;;;3.97;1.70;;;;;;;0.80;100.00;102284.84;4882485;29;20279;-68
2021/04/14 02:15:56;;;;;;;4.03;1.43;;;;;;;0.76;100.00;102287.03;4867497;29;20232;-68
2021/04/14 02:18:25;;;;;;;4.73;1.40;;;;;;;0.67;100.00;102284.53;4899049;29;20208;-68
2021/04/14 02:20:50;;;;;;;4.90;1.60;;;;;;;0.62;100.00;102286.06;4898762;29;20232;-68
2021/04/14 02:23:26;;;;;;;5.67;1.47;;;;;;;0.57;100.00;102283.91;4898048;29;20188;-69
2021/04/14 02:25:59;;;;;;;7.33;1.50;;;;;;;0.56;100.00;102284.88;4883956;29;20230;-69
2021/04/14 02:28:25;;;;;;;4.07;1.70;;;;;;;0.54;100.00;102284.22;4883743;29;20725;-69
2021/04/14 02:30:51;;;;;;;3.20;1.60;;;;;;;0.56;100.00;102276.88;4882287;29;20223;-68
2021/04/14 02:33:17;;;;;;;5.00;1.60;;;;;;;0.58;100.00;102280.22;4882258;29;20191;-68
2021/04/14 02:35:42;;;;;;;6.17;2.07;;;;;;;0.46;100.00;102278.91;4867061;29;20256;-68
2021/04/14 02:38:08;;;;;;;7.50;1.60;;;;;;;0.41;100.00;102281.22;4879748;29;20272;-68
2021/04/14 02:40:34;;;;;;;5.77;1.63;;;;;;;0.38;100.00;102284.25;4895154;29;20248;-69
2021/04/14 02:43:00;;;;;;;5.07;1.83;;;;;;;0.52;100.00;102277.38;4897749;29;20224;-69
2021/04/14 02:45:27;;;;;;;6.00;1.70;;;;;;;0.52;100.00;102275.53;4897819;29;20231;-68
2021/04/14 02:47:53;;;;;;;5.77;1.80;;;;;;;0.62;100.00;102273.50;4867487;29;20685;-68
2021/04/14 02:50:19;;;;;;;8.17;1.87;;;;;;;0.46;100.00;102276.22;4914477;29;20181;-68
2021/04/14 02:52:44;;;;;;;4.27;1.80;;;;;;;0.28;100.00;102276.56;4897391;29;20203;-69
2021/04/14 02:55:10;;;;;;;5.43;1.90;;;;;;;0.17;100.00;102282.25;4866500;29;20564;-69
2021/04/14 02:57:39;;;;;;;9.97;2.07;;;;;;;0.25;100.00;102277.72;4882811;29;20285;-68
2021/04/14 03:00:08;;;;;;;8.23;1.53;;;;;;;0.13;100.00;102279.06;4898312;29;20212;-69
2021/04/14 03:02:35;;;;;;;6.77;1.80;;;;;;;0.12;100.00;102277.38;4896783;29;20232;-70
2021/04/14 03:05:03;;;;;;;3.50;1.50;;;;;;;0.08;100.00;102269.88;4915042;29;20579;-68
2021/04/14 03:07:31;;;;;;;5.97;1.43;;;;;;;0.06;100.00;102272.72;4914785;29;20299;-67
2021/04/14 03:10:02;;;;;;;5.00;1.80;;;;;;;0.12;100.00;102271.22;4913357;29;20212;-70
2021/04/14 03:12:28;;;;;;;5.57;1.90;;;;;;;0.17;100.00;102268.88;4905880;29;20216;-69
2021/04/14 03:14:55;;;;;;;4.97;1.80;;;;;;;0.21;100.00;102270.22;4914905;29;20586;-67
2021/04/14 03:17:23;;;;;;;7.77;1.50;;;;;;;0.14;100.00;102269.19;4879073;29;20224;-67
2021/04/14 03:19:48;;;;;;;5.63;1.70;;;;;;;0.20;100.00;102272.06;4911569;29;20216;-71
2021/04/14 03:22:14;;;;;;;3.60;1.97;;;;;;;-0.17;100.00;102264.66;4848695;29;20275;-70
2021/04/14 03:24:40;;;;;;;5.57;2.23;;;;;;;0.20;100.00;102268.53;4881507;29;20177;-69
2021/04/14 03:27:06;;;;;;;5.63;1.80;;;;;;;-0.13;100.00;102266.00;4901416;29;20699;-70
2021/04/14 03:29:32;;;;;;;5.57;2.30;;;;;;;-0.10;100.00;102266.50;4901297;29;20204;-68
2021/04/14 03:32:00;;;;;;;8.73;2.20;;;;;;;-0.18;100.00;102274.50;4916797;29;20255;-69
2021/04/14 03:34:25;;;;;;;5.37;1.87;;;;;;;-0.32;100.00;102266.31;4903043;29;20272;-70
2021/04/14 03:36:51;;;;;;;6.17;2.27;;;;;;;-0.28;100.00;102264.97;4888382;29;20228;-70
2021/04/14 03:39:17;;;;;;;4.53;2.20;;;;;;;-0.11;100.00;102262.19;4903716;29;20279;-69
2021/04/14 03:41:42;;;;;;;8.17;3.13;;;;;;;-0.10;100.00;102261.16;4901380;29;20640;-69
2021/04/14 03:44:08;;;;;;;4.00;2.47;;;;;;;0.12;100.00;102272.03;4894618;29;20195;-68
2021/04/14 03:46:36;;;;;;;7.17;2.60;;;;;;;0.15;100.00;102266.38;4896959;29;20248;-69
2021/04/14 03:49:01;;;;;;;8.83;3.00;;;;;;;0.21;100.00;102264.88;4905513;29;20220;-69
2021/04/14 03:51:27;;;;;;;8.13;2.40;;;;;;;0.18;100.00;102265.19;4875818;29;20217;-69
2021/04/14 03:53:55;;;;;;;4.63;2.60;;;;;;;0.14;100.00;102269.19;4893590;29;20196;-69
2021/04/14 03:56:23;;;;;;;4.73;2.30;;;;;;;0.25;100.00;102271.53;4897367;29;20255;-69
2021/04/14 03:58:56;;;;;;;4.80;2.00;;;;;;;0.17;100.00;102268.88;4911879;29;20686;-70
2021/04/14 04:01:26;;;;;;;6.07;2.20;;;;;;;0.06;100.00;102269.22;4911269;29;20228;-69
2021/04/14 04:03:54;;;;;;;7.57;2.23;;;;;;;0.02;100.00;102271.38;4910780;29;20202;-70
2021/04/14 04:06:20;;;;;;;5.83;2.40;;;;;;;0.07;100.00;102269.03;4926985;29;20232;-71
2021/04/14 04:08:46;;;;;;;5.40;2.40;;;;;;;0.13;100.00;102268.38;4911985;29;20204;-70
2021/04/14 04:11:11;;;;;;;4.57;2.50;;;;;;;0.13;100.00;102270.22;4895795;29;20579;-68
2021/04/14 04:13:39;;;;;;;5.40;2.40;;;;;;;0.16;100.00;102273.38;4913594;29;20188;-69
2021/04/14 04:16:07;;;;;;;6.80;2.60;;;;;;;0.26;100.00;102268.72;4896552;29;20315;-69
2021/04/14 04:18:33;;;;;;;5.73;2.70;;;;;;;0.38;100.00;102268.22;4929895;29;20227;-69
2021/04/14 04:21:01;;;;;;;6.90;2.63;;;;;;;0.43;100.00;102271.19;4881583;29;20228;-70
2021/04/14 04:23:29;;;;;;;6.67;2.57;;;;;;;0.46;100.00;102270.88;4897406;29;20702;-69
2021/04/14 04:25:55;;;;;;;6.17;3.10;;;;;;;0.45;100.00;102269.19;4928092;29;20314;-68
2021/04/14 04:28:21;;;;;;;4.60;2.80;;;;;;;0.72;100.00;102276.88;4897261;29;20343;-70
2021/04/14 04:30:46;;;;;;;5.77;3.03;;;;;;;0.70;100.00;102278.03;4896426;29;20236;-68
2021/04/14 04:33:15;;;;;;;5.50;3.17;;;;;;;0.89;100.00;102279.31;4896527;29;20222;-69
2021/04/14 04:35:41;;;;;;;5.53;3.07;;;;;;;0.88;100.00;102288.38;4914427;29;20266;-69
2021/04/14 04:38:06;;;;;;;4.30;2.80;;;;;;;1.05;100.00;102283.81;4916779;29;20177;-68
2021/04/14 04:40:34;;;;;;;7.73;3.43;;;;;;;1.18;100.00;102288.44;4900341;29;20224;-69
2021/04/14 04:43:00;;;;;;;5.33;2.70;;;;;;;1.19;100.00;102290.13;4915748;29;20188;-70
2021/04/14 04:45:30;;;;;;;6.07;2.40;;;;;;;1.00;100.00;102291.50;4915806;29;20234;-69
2021/04/14 04:47:58;;;;;;;5.03;2.80;;;;;;;1.07;100.00;102287.16;4897553;29;20236;-69
2021/04/14 04:50:27;;;;;;;6.50;2.60;;;;;;;0.89;100.00;102289.19;4899281;29;20196;-69
2021/04/14 04:53:01;;;;;;;21.57;13.37;;;;;;;0.95;100.00;102294.72;4891319;29;20683;-70
2021/04/14 04:55:27;;;;;;;22.63;12.13;;;;;;;0.86;100.00;102302.88;4897645;29;20232;-69
2021/04/14 04:57:52;;;;;;;6.30;3.70;;;;;;;0.92;100.00;102286.19;4916191;29;20667;-69
2021/04/14 05:00:19;;;;;;;9.13;2.60;;;;;;;1.09;100.00;102293.16;4915124;29;20199;-70
2021/04/14 05:02:46;;;;;;;7.93;3.23;;;;;;;1.27;100.00;102297.28;4906409;29;20287;-69
2021/04/14 05:05:16;;;;;;;6.23;3.13;;;;;;;1.16;100.00;102306.50;4901083;29;20185;-69
2021/04/14 05:07:44;;;;;;;5.50;3.47;;;;;;;1.28;100.00;102305.16;4886133;29;20177;-70
2021/04/14 05:10:11;;;;;;;6.57;3.30;;;;;;;1.38;100.00;102311.13;4884795;29;20208;-68
2021/04/14 05:12:37;;;;;;;4.83;3.13;;;;;;;1.59;100.00;102312.22;4899983;29;20208;-70
2021/04/14 05:15:04;;;;;;;5.50;3.13;;;;;;;1.67;100.00;102308.66;4916958;29;20224;-68
2021/04/14 05:17:30;;;;;;;6.77;3.10;;;;;;;1.58;100.00;102304.34;4899502;29;20199;-68
2021/04/14 05:19:58;;;;;;;6.00;3.53;;;;;;;1.52;100.00;102306.88;4908234;29;20280;-69
2021/04/14 05:22:24;;;;;;;5.87;3.30;;;;;;;1.43;100.00;102303.41;4899400;29;20224;-69
2021/04/14 05:24:52;;;;;;;9.03;4.40;;;;;;;1.54;100.00;102311.06;4885813;29;20181;-68
2021/04/14 05:27:18;;;;;;;7.57;4.50;;;;;;;1.53;100.00;102304.03;4897661;29;20715;-70
2021/04/14 05:29:44;;;;;;;13.37;7.33;;;;;;;1.55;100.00;102315.41;4900603;29;20208;-69
2021/04/14 05:32:09;;;;;;;29.93;16.53;;;;;;;1.79;100.00;102323.31;4885255;29;20223;-70
2021/04/14 05:34:35;;;;;;;25.00;14.83;;;;;;;1.77;100.00;102315.44;4886259;29;20216;-68
2021/04/14 05:37:01;;;;;;;26.20;12.80;;;;;;;1.93;100.00;102320.72;4900775;29;20239;-69
2021/04/14 05:39:29;;;;;;;22.27;12.57;;;;;;;2.21;100.00;102319.22;4885769;29;20682;-69
2021/04/14 05:41:55;;;;;;;17.47;9.40;;;;;;;2.44;100.00;102318.22;4876202;29;20635;-67
2021/04/14 05:44:20;;;;;;;10.40;6.17;;;;;;;2.62;100.00;102324.06;4886180;29;20196;-68
2021/04/14 05:46:46;;;;;;;13.90;6.67;;;;;;;2.78;100.00;102320.25;4886798;29;20268;-68
2021/04/14 05:49:12;;;;;;;12.53;6.33;;;;;;;2.86;100.00;102317.50;4882414;29;20216;-68
2021/04/14 05:51:37;;;;;;;11.63;5.93;;;;;;;2.99;100.00;102323.06;4910119;29;20217;-68
2021/04/14 05:54:05;;;;;;;10.50;4.90;;;;;;;2.92;100.00;102319.44;4896216;29;20219;-68
2021/04/14 05:56:31;;;;;;;12.00;5.20;;;;;;;2.97;100.00;102317.06;4865294;29;20225;-68
2021/04/14 05:58:59;;;;;;;11.90;4.93;;;;;;;3.05;100.00;102330.38;4880841;29;20293;-69
2021/04/14 06:01:26;;;;;;;9.53;4.93;;;;;;;3.26;100.00;102327.81;4880146;29;20250;-70
2021/04/14 06:03:54;;;;;;;11.47;4.93;;;;;;;3.31;100.00;102322.72;4864484;29;20197;-69
2021/04/14 06:06:21;;;;;;;7.87;4.40;;;;;;;3.49;100.00;102332.06;4895743;29;20235;-69
2021/04/14 06:08:47;;;;;;;8.87;4.50;;;;;;;3.66;100.00;102334.38;4880721;29;20704;-69
2021/04/14 06:11:15;;;;;;;6.33;4.40;;;;;;;3.78;100.00;102327.50;4896752;29;20235;-71
2021/04/14 06:13:44;;;;;;;8.47;4.30;;;;;;;4.03;100.00;102331.53;4880101;29;20189;-70
2021/04/14 06:16:10;;;;;;;7.90;3.93;;;;;;;4.00;100.00;102331.94;4880193;29;20233;-69
2021/04/14 06:18:38;;;;;;;5.33;3.60;;;;;;;4.17;100.00;102327.97;4873192;29;20699;-69
2021/04/14 06:21:07;;;;;;;12.40;6.17;;;;;;;4.18;100.00;102326.97;4896667;29;20240;-70
2021/04/14 06:23:36;;;;;;;8.37;4.67;;;;;;;4.44;100.00;102336.97;4895169;29;20189;-68
2021/04/14 06:28:35;;;;;;;6.63;3.60;;;;;;;3.94;100.00;102340.75;4897067;29;20292;-68
2021/04/14 06:31:01;;;;;;;9.70;4.90;;;;;;;4.44;100.00;102328.91;4895353;29;20650;-68
2021/04/14 06:33:31;;;;;;;7.73;4.67;;;;;;;4.20;100.00;102334.63;4895889;29;20274;-69
2021/04/14 06:35:57;;;;;;;13.67;6.90;;;;;;;4.24;100.00;102327.84;4898400;29;20243;-68
2021/04/14 06:38:28;;;;;;;7.80;4.73;;;;;;;4.31;100.00;102328.75;4898338;29;20204;-68
2021/04/14 06:43:43;;;;;;;7.47;3.63;;;;;;;4.65;100.00;102334.25;4897868;29;20333;-70
2021/04/14 06:46:20;;;;;;;5.00;2.77;;;;;;;4.63;100.00;102330.94;4913799;29;20231;-68
2021/04/14 06:49:14;;;;;;;6.80;3.10;;;;;;;4.84;100.00;102322.88;4898560;29;20208;-69
2021/04/14 06:52:02;;;;;;;7.80;2.90;;;;;;;5.04;100.00;102319.28;4913019;29;20232;-69
2021/04/14 06:54:53;;;;;;;6.00;2.33;;;;;;;5.21;100.00;102324.16;4898114;29;20212;-68
2021/04/14 06:57:22;;;;;;;6.50;2.40;;;;;;;5.31;100.00;102313.03;4896867;29;20267;-70
2021/04/14 07:00:00;;;;;;;6.50;2.40;;;;;;;5.33;100.00;102314.53;4898399;29;20214;-69
2021/04/14 07:02:32;;;;;;;7.87;2.70;;;;;;;5.35;100.00;102324.06;4881877;29;20377;-69
2021/04/14 07:05:08;;;;;;;4.23;2.17;;;;;;;5.55;100.00;102318.78;4882966;29;20677;-68
2021/04/14 07:07:37;;;;;;;3.83;1.80;;;;;;;5.74;100.00;102324.31;4883357;29;20215;-69
2021/04/14 07:10:08;;;;;;;4.27;2.10;;;;;;;5.61;100.00;102323.41;4882468;29;20209;-69
2021/04/14 07:12:33;;;;;;;6.50;2.30;;;;;;;5.69;100.00;102325.91;4881771;29;20234;-69
2021/04/14 07:14:59;;;;;;;5.70;1.83;;;;;;;5.85;100.00;102321.88;4914820;29;20212;-68
2021/04/14 07:18:02;;;;;;;3.63;2.07;;;;;;;5.88;98.86;102331.44;4881751;29;20232;-69
2021/04/14 07:20:37;;;;;;;6.20;1.93;;;;;;;5.90;98.06;102318.59;4914052;29;20240;-69
2021/04/14 07:23:28;;;;;;;4.90;1.90;;;;;;;5.66;98.51;102326.28;4896537;29;20214;-69
2021/04/14 07:25:59;;;;;;;5.83;2.10;;;;;;;5.80;99.66;102321.63;4914105;29;20296;-69
2021/04/14 07:28:53;;;;;;;6.17;2.00;;;;;;;5.68;99.38;102324.22;4897735;29;20219;-69
2021/04/14 07:31:34;;;;;;;5.17;1.87;;;;;;;5.66;99.23;102316.38;4896884;29;20228;-70
2021/04/14 07:34:22;;;;;;;9.50;2.60;;;;;;;5.54;99.53;102319.81;4913914;29;20227;-69
2021/04/14 07:37:00;;;;;;;5.30;2.17;;;;;;;5.22;100.00;102328.53;4913817;29;20243;-69
2021/04/14 07:39:34;;;;;;;4.63;2.43;;;;;;;5.51;100.00;102312.97;4897420;29;20638;-69
2021/04/14 07:42:06;;;;;;;6.60;2.60;;;;;;;5.43;100.00;102312.28;4894215;29;20306;-69
2021/04/14 07:45:00;;;;;;;4.63;2.70;;;;;;;5.89;100.00;102309.66;4894530;29;20276;-69
2021/04/14 07:47:26;;;;;;;4.57;2.80;;;;;;;5.86;98.04;102309.22;4878176;29;20711;-68
2021/04/14 07:49:53;;;;;;;5.57;2.67;;;;;;;5.94;97.54;102309.88;4895276;29;20818;-69
2021/04/14 07:52:29;;;;;;;4.47;2.50;;;;;;;5.86;99.32;102312.75;4894160;29;20236;-69
2021/04/14 07:54:56;;;;;;;4.30;2.17;;;;;;;5.90;97.67;102302.41;4850088;29;20216;-69
2021/04/14 07:57:32;;;;;;;4.53;2.23;;;;;;;6.04;97.82;102299.53;4896848;29;20224;-69
2021/04/14 08:00:15;;;;;;;5.80;2.20;;;;;;;6.14;96.34;102305.38;4897476;29;20235;-69
2021/04/14 08:02:40;;;;;;;5.47;2.17;;;;;;;5.97;95.98;102304.09;4913133;29;20220;-69
2021/04/14 08:05:06;;;;;;;6.20;1.90;;;;;;;5.98;97.32;102305.75;4897196;29;20196;-68
2021/04/14 08:07:37;;;;;;;6.70;2.07;;;;;;;5.83;98.62;102302.38;4914044;29;20204;-69
2021/04/14 08:10:09;;;;;;;7.47;2.60;;;;;;;5.91;98.35;102304.88;4880937;29;20259;-68
2021/04/14 08:12:54;;;;;;;5.80;2.10;;;;;;;6.05;98.63;102306.59;4896105;29;20698;-69
2021/04/14 08:15:30;;;;;;;4.83;2.20;;;;;;;6.16;98.88;102298.75;4896302;29;20223;-69
2021/04/14 08:18:09;;;;;;;5.30;1.80;;;;;;;6.68;95.10;102298.81;4914072;29;20211;-69
2021/04/14 08:20:35;;;;;;;5.77;2.10;;;;;;;6.78;95.42;102289.28;4912055;29;20312;-69
2021/04/14 08:23:12;;;;;;;5.10;1.77;;;;;;;6.90;90.44;102288.47;4912242;29;20186;-69
2021/04/14 08:25:48;;;;;;;6.27;1.77;;;;;;;6.92;92.14;102297.19;4912554;29;20216;-68
2021/04/14 08:28:24;;;;;;;4.37;1.47;;;;;;;7.20;89.73;102278.00;4913335;29;20688;-68
2021/04/14 08:30:50;;;;;;;4.33;1.53;;;;;;;6.98;86.72;102288.25;4914871;29;20239;-68
2021/04/14 08:33:21;;;;;;;3.80;1.40;;;;;;;6.61;87.42;102292.59;4899590;29;20184;-68
2021/04/14 08:35:49;;;;;;;3.97;1.40;;;;;;;6.76;84.79;102285.13;4882322;29;20871;-69
2021/04/14 08:38:26;;;;;;;5.90;1.33;;;;;;;6.65;85.35;102288.47;4897240;29;20283;-68
2021/04/14 08:40:56;;;;;;;5.53;1.30;;;;;;;6.82;83.55;102293.22;4913621;29;20311;-69
2021/04/14 08:43:34;;;;;;;4.00;1.20;;;;;;;7.26;80.84;102288.81;4913651;29;20193;-70
2021/04/14 08:46:25;;;;;;;6.50;1.40;;;;;;;7.54;80.45;102289.38;4896495;29;20262;-69
2021/04/14 08:49:02;;;;;;;3.53;1.20;;;;;;;7.81;74.28;102283.66;4896684;29;20227;-68
2021/04/14 08:51:38;;;;;;;5.57;1.50;;;;;;;7.44;76.73;102275.47;4896569;29;20238;-69
2021/04/14 08:54:04;;;;;;;2.63;1.10;;;;;;;7.33;76.52;102279.66;4862188;29;20217;-67
2021/04/14 08:56:29;;;;;;;4.83;1.77;;;;;;;7.77;76.77;102271.59;4894557;29;20886;-69
2021/04/14 08:58:57;;;;;;;5.30;1.30;;;;;;;7.94;74.38;102279.00;4846364;29;20205;-68
2021/04/14 09:01:26;;;;;;;2.63;1.00;;;;;;;7.94;74.28;102276.31;4893070;29;20315;-68
2021/04/14 09:03:57;;;;;;;3.47;1.13;;;;;;;7.51;75.30;102277.13;4877808;29;20185;-68
2021/04/14 09:06:25;;;;;;;6.03;0.90;;;;;;;7.52;74.94;102273.34;4877081;29;20230;-69
2021/04/14 09:08:52;;;;;;;3.30;1.00;;;;;;;7.41;74.98;102268.59;4897098;29;20208;-69
2021/04/14 09:11:29;;;;;;;1.90;0.90;;;;;;;7.72;75.44;102266.00;4911871;29;20236;-69
2021/04/14 09:14:10;;;;;;;3.03;1.03;;;;;;;7.47;74.70;102267.78;4895964;29;20274;-69
2021/04/14 09:16:52;;;;;;;3.80;1.00;;;;;;;7.65;76.74;102258.97;4881604;29;20661;-68
2021/04/14 09:19:22;;;;;;;3.37;1.10;;;;;;;7.92;73.60;102269.47;4879034;29;20220;-69
2021/04/14 09:22:02;;;;;;;2.37;0.80;;;;;;;8.02;73.99;102264.41;4912777;29;20243;-69
2021/04/14 09:24:39;;;;;;;4.77;1.00;;;;;;;8.20;71.35;102262.66;4900344;29;20721;-69
2021/04/14 09:27:25;;;;;;;4.23;0.90;;;;;;;7.89;69.95;102264.47;4900031;29;20224;-69
2021/04/14 09:30:06;;;;;;;3.63;0.80;;;;;;;7.91;68.77;102265.06;4899063;29;20236;-71
2021/04/14 09:32:54;;;;;;;5.23;1.00;;;;;;;8.33;68.88;102260.69;4915981;29;20255;-70
2021/04/14 09:35:28;;;;;;;2.17;0.90;;;;;;;8.43;69.24;102248.34;4915424;29;20223;-69
2021/04/14 09:38:04;;;;;;;3.80;1.50;;;;;;;8.75;63.67;102254.53;4898450;29;20642;-71
2021/04/14 09:40:39;;;;;;;4.60;1.17;;;;;;;8.64;65.80;102249.84;4864992;29;20750;-69
2021/04/14 09:43:16;;;;;;;3.27;1.30;;;;;;;8.41;69.21;102260.44;4866799;29;20181;-71
2021/04/14 09:45:55;;;;;;;6.00;1.50;;;;;;;8.17;68.18;102263.94;4896461;29;20288;-70
2021/04/14 09:48:21;;;;;;;3.43;1.50;;;;;;;7.94;69.60;102267.38;4866194;29;20209;-71
2021/04/14 09:50:47;;;;;;;5.30;2.33;;;;;;;7.46;71.75;102260.69;4898779;29;20227;-69
2021/04/14 09:53:23;;;;;;;6.70;2.70;;;;;;;7.49;75.61;102270.25;4914527;29;20207;-69
2021/04/14 09:55:57;;;;;;;4.30;1.70;;;;;;;7.94;72.92;102272.78;4916075;29;20314;-69
2021/04/14 09:58:49;;;;;;;2.77;1.40;;;;;;;7.60;76.14;102281.25;4899542;29;20718;-69
2021/04/14 10:01:26;;;;;;;2.60;1.20;;;;;;;7.07;82.24;102288.84;4914739;29;20228;-69
2021/04/14 10:04:03;;;;;;;1.77;1.00;;;;;;;6.48;94.31;102297.16;4898620;29;20583;-70
2021/04/14 10:06:28;;;;;;;3.33;1.10;;;;;;;6.12;100.00;102302.06;4899224;29;20220;-69
2021/04/14 10:09:03;;;;;;;3.07;1.00;;;;;;;5.25;100.00;102303.88;4915653;29;20211;-72
2021/04/14 10:11:34;;;;;;;3.03;0.83;;;;;;;5.18;100.00;102294.97;4915061;29;20223;-68
2021/04/14 10:14:10;;;;;;;2.30;0.93;;;;;;;5.08;100.00;102291.78;4885602;29;20260;-69
2021/04/14 10:16:36;;;;;;;3.63;0.90;;;;;;;5.46;100.00;102291.19;4919983;29;20236;-70
2021/04/14 10:19:09;;;;;;;2.70;0.60;;;;;;;5.42;100.00;102280.97;4902174;29;20252;-69
2021/04/14 10:21:36;;;;;;;2.07;0.80;;;;;;;5.65;100.00;102282.34;4898407;29;20236;-70
2021/04/14 10:24:06;;;;;;;1.70;0.70;;;;;;;5.97;100.00;102271.75;4883746;29;20192;-70
2021/04/14 10:26:35;;;;;;;1.10;0.70;;;;;;;5.73;100.00;102268.72;4880920;29;20244;-69
2021/04/14 10:29:06;;;;;;;2.37;0.90;;;;;;;6.03;100.00;102270.91;4880697;29;20208;-69
2021/04/14 10:31:31;;;;;;;0.83;0.73;;;;;;;6.30;100.00;102261.81;4895758;29;20276;-72
2021/04/14 10:34:11;;;;;;;3.67;0.93;;;;;;;6.29;100.00;102254.78;4880193;29;20825;-69
2021/04/14 10:36:41;;;;;;;0.83;0.50;;;;;;;6.87;100.00;102244.84;4908457;29;20230;-69
2021/04/14 10:39:18;;;;;;;1.73;0.70;;;;;;;7.21;100.00;102244.56;4915320;29;20336;-70
2021/04/14 10:41:45;;;;;;;3.40;0.90;;;;;;;7.21;94.23;102239.16;4913927;29;20360;-71
2021/04/14 10:44:17;;;;;;;3.97;0.80;;;;;;;7.37;95.98;102237.63;4899424;29;20643;-70
2021/04/14 10:46:43;;;;;;;1.77;0.70;;;;;;;7.44;90.95;102235.75;4883245;29;20236;-69
2021/04/14 10:49:27;;;;;;;3.43;0.73;;;;;;;7.64;86.52;102228.41;4899076;29;20204;-68
2021/04/14 10:51:56;;;;;;;2.83;0.83;;;;;;;7.79;88.40;102223.53;4913315;29;20709;-68
2021/04/14 10:54:30;;;;;;;1.67;0.80;;;;;;;8.39;88.32;102219.22;4898692;29;20892;-69
2021/04/14 10:56:57;;;;;;;2.23;0.90;;;;;;;8.52;86.64;102219.94;4898499;29;20235;-69
2021/04/14 10:59:22;;;;;;;3.20;0.87;;;;;;;8.58;81.46;102207.41;4898807;29;20243;-69
2021/04/14 11:01:48;;;;;;;2.50;0.80;;;;;;;9.25;70.25;102206.31;4897015;29;20299;-69
2021/04/14 11:04:36;;;;;;;1.57;0.80;;;;;;;8.98;68.55;102194.09;4883574;29;20181;-68
2021/04/14 11:07:19;;;;;;;2.07;0.80;;;;;;;9.77;65.33;102193.72;4914666;29;20319;-70
2021/04/14 11:09:48;;;;;;;2.63;0.60;;;;;;;9.46;68.55;102192.28;4915217;29;20204;-70
2021/04/14 11:12:23;;;;;;;1.97;0.60;;;;;;;9.23;67.62;102197.56;4898155;29;20260;-69
2021/04/14 11:14:52;;;;;;;4.30;1.60;;;;;;;9.07;69.11;102198.16;4884783;29;20230;-69
2021/04/14 11:17:21;;;;;;;3.97;1.10;;;;;;;9.34;65.58;102199.50;4899573;29;20356;-69
2021/04/14 11:19:54;;;;;;;2.50;0.80;;;;;;;10.14;62.32;102187.16;4915619;29;20215;-70
2021/04/14 11:22:21;;;;;;;3.37;0.80;;;;;;;10.37;64.23;102196.22;4915832;29;20266;-68
2021/04/14 11:24:54;;;;;;;1.77;0.60;;;;;;;9.20;60.06;102202.63;4883716;29;20240;-71
2021/04/14 11:27:30;;;;;;;0.47;0.37;;;;;;;7.10;75.27;102219.00;4898915;29;20228;-69
2021/04/14 11:30:13;;;;;;;0.80;0.50;;;;;;;5.68;91.63;102232.59;4899717;29;20232;-69
2021/04/14 11:32:38;;;;;;;1.50;0.67;;;;;;;5.40;95.82;102235.41;4898236;29;20251;-69
2021/04/14 11:35:11;;;;;;;3.47;0.80;;;;;;;5.47;99.48;102228.16;4883472;29;20706;-69
2021/04/14 11:37:37;;;;;;;2.97;0.60;;;;;;;5.72;99.06;102223.09;4883315;29;20184;-69
2021/04/14 11:40:27;;;;;;;2.20;0.50;;;;;;;5.69;93.57;102223.50;4905449;29;20220;-68
2021/04/14 11:42:57;;;;;;;1.07;0.60;;;;;;;6.38;90.60;102221.19;4865724;29;20229;-69
2021/04/14 11:45:27;;;;;;;0.93;0.60;;;;;;;6.91;85.16;102210.97;4862694;29;20287;-69